createdAt,value
2015-10-12T00:00:01.163Z,95382
2015-10-12T00:00:19.900Z,95398
2015-10-12T00:00:38.260Z,95381
2015-10-12T00:00:56.791Z,95392
2015-10-12T00:01:15.137Z,95399
2015-10-12T00:01:33.496Z,95386
2015-10-12T00:01:52.105Z,95381
2015-10-12T00:02:10.468Z,95400
2015-10-12T00:02:29.030Z,95394
2015-10-12T00:02:47.593Z,95392
2015-10-12T00:03:06.093Z,95395
2015-10-12T00:03:24.533Z,95385
2015-10-12T00:03:42.877Z,95396
2015-10-12T00:04:01.440Z,95396
2015-10-12T00:04:20.177Z,95391
2015-10-12T00:04:38.536Z,95402
2015-10-12T00:04:57.068Z,95391
2015-10-12T00:05:15.758Z,95397
2015-10-12T00:05:34.149Z,95385
2015-10-12T00:05:52.742Z,95399
2015-10-12T00:06:11.541Z,95388
2015-10-12T00:06:29.932Z,95394
2015-10-12T00:06:48.541Z,95396
2015-10-12T00:07:07.166Z,95385
2015-10-12T00:07:25.982Z,95388
2015-10-12T00:07:44.372Z,95387
2015-10-12T00:08:02.826Z,95395
2015-10-12T00:08:21.188Z,95395
2015-10-12T00:08:39.735Z,95395
2015-10-12T00:08:58.110Z,95401
2015-10-12T00:09:16.488Z,95398
2015-10-12T00:09:35.003Z,95395
2015-10-12T00:09:53.441Z,95387
2015-10-12T00:10:11.988Z,95390
2015-10-12T00:10:30.537Z,95384
2015-10-12T00:10:48.959Z,95395
2015-10-12T00:11:07.349Z,95390
2015-10-12T00:11:25.758Z,95395
2015-10-12T00:11:44.102Z,95393
2015-10-12T00:12:02.462Z,95395
2015-10-12T00:12:21.027Z,95390
2015-10-12T00:12:39.371Z,95384
2015-10-12T00:12:57.886Z,95392
2015-10-12T00:13:16.308Z,95389
2015-10-12T00:13:34.685Z,95386
2015-10-12T00:13:53.154Z,95397
2015-10-12T00:14:11.717Z,95395
2015-10-12T00:14:30.110Z,95398
2015-10-12T00:14:48.563Z,95388
2015-10-12T00:15:07.079Z,95396
2015-10-12T00:15:25.815Z,95394
2015-10-12T00:15:44.159Z,95402
2015-10-12T00:16:02.831Z,95386
2015-10-12T00:16:21.331Z,95386
2015-10-12T00:16:39.818Z,95392
2015-10-12T00:16:58.553Z,95391
2015-10-12T00:17:17.225Z,95394
2015-10-12T00:17:35.884Z,95393
2015-10-12T00:17:54.462Z,95383
2015-10-12T00:18:12.868Z,95394
2015-10-12T00:18:31.356Z,95394
2015-10-12T00:18:49.699Z,95400
2015-10-12T00:19:08.121Z,95389
2015-10-12T00:19:26.593Z,95394
2015-10-12T00:19:44.984Z,95386
2015-10-12T00:20:03.499Z,95383
2015-10-12T00:20:21.859Z,95392
2015-10-12T00:20:40.220Z,95395
2015-10-12T00:20:58.657Z,95394
2015-10-12T00:21:17.064Z,95397
2015-10-12T00:21:35.410Z,95384
2015-10-12T00:21:53.817Z,95390
2015-10-12T00:22:12.379Z,95395
2015-10-12T00:22:30.804Z,95392
2015-10-12T00:22:49.257Z,95400
2015-10-12T00:23:07.710Z,95386
2015-10-12T00:23:26.117Z,95388
2015-10-12T00:23:44.526Z,95391
2015-10-12T00:24:03.057Z,95393
2015-10-12T00:24:21.416Z,95396
2015-10-12T00:24:39.779Z,95385
2015-10-12T00:24:58.216Z,95390
2015-10-12T00:25:16.607Z,95396
2015-10-12T00:25:35.125Z,95399
2015-10-12T00:25:53.609Z,95396
2015-10-12T00:26:12.140Z,95400
2015-10-12T00:26:30.546Z,95406
2015-10-12T00:26:48.971Z,95398
2015-10-12T00:27:07.378Z,95406
2015-10-12T00:27:25.940Z,95392
2015-10-12T00:27:44.380Z,95392
2015-10-12T00:28:02.817Z,95400
2015-10-12T00:28:21.239Z,95395
2015-10-12T00:28:39.617Z,95408
2015-10-12T00:28:58.242Z,95398
2015-10-12T00:29:16.679Z,95395
2015-10-12T00:29:35.101Z,95400
2015-10-12T00:29:53.480Z,95398
2015-10-12T00:30:11.871Z,95406
2015-10-12T00:30:30.449Z,95400
2015-10-12T00:30:49.170Z,95405
2015-10-12T00:31:07.717Z,95392
2015-10-12T00:31:26.482Z,95400
2015-10-12T00:31:45.032Z,95400
2015-10-12T00:32:03.735Z,95406
2015-10-12T00:32:22.329Z,95398
2015-10-12T00:32:40.688Z,95391
2015-10-12T00:32:59.034Z,95398
2015-10-12T00:33:17.534Z,95390
2015-10-12T00:33:35.987Z,95395
2015-10-12T00:33:54.803Z,95395
2015-10-12T00:34:13.193Z,95395
2015-10-12T00:34:31.772Z,95390
2015-10-12T00:34:50.181Z,95404
2015-10-12T00:35:08.900Z,95393
2015-10-12T00:35:27.384Z,95407
2015-10-12T00:35:45.728Z,95396
2015-10-12T00:36:04.387Z,95404
2015-10-12T00:36:23.012Z,95407
2015-10-12T00:36:41.574Z,95402
2015-10-12T00:37:00.218Z,95399
2015-10-12T00:37:18.827Z,95404
2015-10-12T00:37:37.468Z,95402
2015-10-12T00:37:55.861Z,95400
2015-10-12T00:38:14.236Z,95406
2015-10-12T00:38:32.751Z,95398
2015-10-12T00:38:51.114Z,95406
2015-10-12T00:39:08.957Z,95409
2015-10-12T00:39:27.379Z,95409
2015-10-12T00:39:45.864Z,95414
2015-10-12T00:40:04.570Z,95409
2015-10-12T00:40:23.179Z,95403
2015-10-12T00:40:41.632Z,95403
2015-10-12T00:41:00.182Z,95404
2015-10-12T00:41:18.635Z,95398
2015-10-12T00:41:37.042Z,95401
2015-10-12T00:41:55.528Z,95409
2015-10-12T00:42:13.903Z,95398
2015-10-12T00:42:32.606Z,95401
2015-10-12T00:42:51.262Z,95404
2015-10-12T00:43:09.733Z,95406
2015-10-12T00:43:28.155Z,95403
2015-10-12T00:43:46.561Z,95398
2015-10-12T00:44:05.300Z,95398
2015-10-12T00:44:23.815Z,95403
2015-10-12T00:44:42.628Z,95398
2015-10-12T00:45:01.083Z,95409
2015-10-12T00:45:19.630Z,95403
2015-10-12T00:45:38.473Z,95408
2015-10-12T00:45:56.976Z,95403
2015-10-12T00:46:15.351Z,95403
2015-10-12T00:46:33.726Z,95404
2015-10-12T00:46:52.180Z,95390
2015-10-12T00:47:11.011Z,95398
2015-10-12T00:47:29.401Z,95398
2015-10-12T00:47:48.026Z,95398
2015-10-12T00:48:06.639Z,95395
2015-10-12T00:48:25.186Z,95398
2015-10-12T00:48:43.717Z,95406
2015-10-12T00:49:02.125Z,95393
2015-10-12T00:49:20.750Z,95398
2015-10-12T00:49:39.344Z,95401
2015-10-12T00:49:58.096Z,95395
2015-10-12T00:50:16.705Z,95392
2015-10-12T00:50:35.315Z,95392
2015-10-12T00:50:53.986Z,95405
2015-10-12T00:51:12.678Z,95400
2015-10-12T00:51:31.194Z,95402
2015-10-12T00:51:49.537Z,95397
2015-10-12T00:52:08.118Z,95403
2015-10-12T00:52:26.634Z,95403
2015-10-12T00:52:45.009Z,95395
2015-10-12T00:53:03.370Z,95395
2015-10-12T00:53:21.933Z,95398
2015-10-12T00:53:40.402Z,95401
2015-10-12T00:53:58.824Z,95398
2015-10-12T00:54:17.467Z,95401
2015-10-12T00:54:36.123Z,95395
2015-10-12T00:54:54.514Z,95409
2015-10-12T00:55:13.266Z,95395
2015-10-12T00:55:31.657Z,95392
2015-10-12T00:55:50.204Z,95404
2015-10-12T00:56:08.597Z,95392
2015-10-12T00:56:27.019Z,95403
2015-10-12T00:56:45.503Z,95400
2015-10-12T00:57:04.207Z,95390
2015-10-12T00:57:22.585Z,95393
2015-10-12T00:57:41.116Z,95392
2015-10-12T00:57:59.631Z,95401
2015-10-12T00:58:18.431Z,95396
2015-10-12T00:58:36.869Z,95398
2015-10-12T00:58:55.322Z,95412
2015-10-12T00:59:13.684Z,95393
2015-10-12T00:59:32.262Z,95396
2015-10-12T00:59:50.622Z,95401
2015-10-12T01:00:09.200Z,95395
2015-10-12T01:00:27.750Z,95398
2015-10-12T01:00:46.156Z,95399
2015-10-12T01:01:04.594Z,95402
2015-10-12T01:01:23.127Z,95393
2015-10-12T01:01:41.736Z,95399
2015-10-12T01:02:00.189Z,95396
2015-10-12T01:02:18.536Z,95393
2015-10-12T01:02:36.942Z,95396
2015-10-12T01:02:55.302Z,95403
2015-10-12T01:03:13.864Z,95406
2015-10-12T01:03:32.320Z,95403
2015-10-12T01:03:51.039Z,95400
2015-10-12T01:04:09.477Z,95397
2015-10-12T01:04:27.886Z,95394
2015-10-12T01:04:46.276Z,95392
2015-10-12T01:05:04.698Z,95403
2015-10-12T01:05:23.153Z,95396
2015-10-12T01:05:41.513Z,95398
2015-10-12T01:06:00.013Z,95391
2015-10-12T01:06:18.591Z,95399
2015-10-12T01:06:37.110Z,95407
2015-10-12T01:06:55.531Z,95390
2015-10-12T01:07:14.094Z,95390
2015-10-12T01:07:32.549Z,95392
2015-10-12T01:07:51.065Z,95395
2015-10-12T01:08:09.643Z,95390
2015-10-12T01:08:28.099Z,95398
2015-10-12T01:08:46.490Z,95392
2015-10-12T01:09:04.958Z,95398
2015-10-12T01:09:23.368Z,95401
2015-10-12T01:09:41.914Z,95409
2015-10-12T01:10:00.493Z,95401
2015-10-12T01:10:19.055Z,95404
2015-10-12T01:10:37.605Z,95398
2015-10-12T01:10:56.246Z,95403
2015-10-12T01:11:14.949Z,95398
2015-10-12T01:11:33.482Z,95403
2015-10-12T01:11:51.998Z,95401
2015-10-12T01:12:10.482Z,95397
2015-10-12T01:12:28.908Z,95395
2015-10-12T01:12:47.330Z,95381
2015-10-12T01:13:06.283Z,95398
2015-10-12T01:13:24.642Z,95403
2015-10-12T01:13:42.909Z,95413
2015-10-12T01:14:01.549Z,95396
2015-10-12T01:14:19.909Z,95404
2015-10-12T01:14:38.272Z,95404
2015-10-12T01:14:56.866Z,95401
2015-10-12T01:15:15.319Z,95401
2015-10-12T01:15:33.665Z,95413
2015-10-12T01:15:52.055Z,95399
2015-10-12T01:16:10.430Z,95402
2015-10-12T01:16:28.899Z,95407
2015-10-12T01:16:47.388Z,95405
2015-10-12T01:17:05.888Z,95394
2015-10-12T01:17:24.528Z,95402
2015-10-12T01:17:42.874Z,95407
2015-10-12T01:18:01.468Z,95407
2015-10-12T01:18:20.061Z,95399
2015-10-12T01:18:38.829Z,95415
2015-10-12T01:18:57.298Z,95402
2015-10-12T01:19:15.798Z,95400
2015-10-12T01:19:34.204Z,95403
2015-10-12T01:19:52.567Z,95403
2015-10-12T01:20:11.130Z,95400
2015-10-12T01:20:29.880Z,95406
2015-10-12T01:20:48.319Z,95395
2015-10-12T01:21:06.726Z,95411
2015-10-12T01:21:25.132Z,95403
2015-10-12T01:21:43.572Z,95400
2015-10-12T01:22:02.010Z,95402
2015-10-12T01:22:20.541Z,95405
2015-10-12T01:22:38.901Z,95405
2015-10-12T01:22:57.591Z,95408
2015-10-12T01:23:16.544Z,95400
2015-10-12T01:23:34.888Z,95408
2015-10-12T01:23:53.328Z,95408
2015-10-12T01:24:11.688Z,95410
2015-10-12T01:24:30.391Z,95413
2015-10-12T01:24:48.738Z,95410
2015-10-12T01:25:07.097Z,95415
2015-10-12T01:25:25.597Z,95410
2015-10-12T01:25:44.035Z,95402
2015-10-12T01:26:02.427Z,95415
2015-10-12T01:26:20.865Z,95410
2015-10-12T01:26:39.412Z,95399
2015-10-12T01:26:57.977Z,95406
2015-10-12T01:27:16.415Z,95410
2015-10-12T01:27:34.758Z,95405
2015-10-12T01:27:53.151Z,95403
2015-10-12T01:28:11.635Z,95411
2015-10-12T01:28:30.042Z,95413
2015-10-12T01:28:48.482Z,95405
2015-10-12T01:29:07.138Z,95413
2015-10-12T01:29:25.529Z,95405
2015-10-12T01:29:43.951Z,95410
2015-10-12T01:30:02.485Z,95402
2015-10-12T01:30:20.860Z,95402
2015-10-12T01:30:39.438Z,95404
2015-10-12T01:30:57.768Z,95405
2015-10-12T01:31:16.237Z,95408
2015-10-12T01:31:34.753Z,95399
2015-10-12T01:31:53.131Z,95402
2015-10-12T01:32:12.037Z,95410
2015-10-12T01:32:30.506Z,95402
2015-10-12T01:32:48.993Z,95400
2015-10-12T01:33:07.493Z,95410
2015-10-12T01:33:25.884Z,95413
2015-10-12T01:33:44.306Z,95416
2015-10-12T01:34:02.777Z,95407
2015-10-12T01:34:21.168Z,95401
2015-10-12T01:34:39.543Z,95401
2015-10-12T01:34:58.093Z,95411
2015-10-12T01:35:16.468Z,95411
2015-10-12T01:35:35.155Z,95401
2015-10-12T01:35:53.814Z,95409
2015-10-12T01:36:12.189Z,95399
2015-10-12T01:36:30.704Z,95399
2015-10-12T01:36:49.220Z,95402
2015-10-12T01:37:07.581Z,95418
2015-10-12T01:37:26.191Z,95407
2015-10-12T01:37:44.612Z,95401
2015-10-12T01:38:02.976Z,95404
2015-10-12T01:38:21.335Z,95399
2015-10-12T01:38:39.710Z,95405
2015-10-12T01:38:58.104Z,95411
2015-10-12T01:39:16.510Z,95405
2015-10-12T01:39:35.119Z,95415
2015-10-12T01:39:53.651Z,95413
2015-10-12T01:40:12.153Z,95407
2015-10-12T01:40:30.575Z,95407
2015-10-12T01:40:49.121Z,95399
2015-10-12T01:41:07.578Z,95407
2015-10-12T01:41:26.187Z,95404
2015-10-12T01:41:44.656Z,95415
2015-10-12T01:42:03.080Z,95410
2015-10-12T01:42:21.439Z,95411
2015-10-12T01:42:39.923Z,95414
2015-10-12T01:42:58.533Z,95406
2015-10-12T01:43:17.067Z,95401
2015-10-12T01:43:35.426Z,95412
2015-10-12T01:43:53.864Z,95399
2015-10-12T01:44:12.273Z,95404
2015-10-12T01:44:30.820Z,95404
2015-10-12T01:44:49.336Z,95401
2015-10-12T01:45:07.807Z,95401
2015-10-12T01:45:26.198Z,95411
2015-10-12T01:45:44.901Z,95400
2015-10-12T01:46:03.528Z,95393
2015-10-12T01:46:21.919Z,95409
2015-10-12T01:46:40.294Z,95401
2015-10-12T01:46:58.825Z,95404
2015-10-12T01:47:17.235Z,95401
2015-10-12T01:47:35.704Z,95401
2015-10-12T01:47:54.173Z,95408
2015-10-12T01:48:12.518Z,95406
2015-10-12T01:48:31.097Z,95400
2015-10-12T01:48:49.706Z,95403
2015-10-12T01:49:08.396Z,95400
2015-10-12T01:49:26.896Z,95404
2015-10-12T01:49:45.443Z,95393
2015-10-12T01:50:03.928Z,95401
2015-10-12T01:50:22.540Z,95395
2015-10-12T01:50:41.118Z,95393
2015-10-12T01:50:59.571Z,95409
2015-10-12T01:51:18.074Z,95398
2015-10-12T01:51:36.512Z,95390
2015-10-12T01:51:54.949Z,95398
2015-10-12T01:52:13.451Z,95390
2015-10-12T01:52:31.795Z,95393
2015-10-12T01:52:50.154Z,95399
2015-10-12T01:53:08.561Z,95399
2015-10-12T01:53:27.126Z,95402
2015-10-12T01:53:45.798Z,95390
2015-10-12T01:54:04.439Z,95396
2015-10-12T01:54:22.926Z,95398
2015-10-12T01:54:41.285Z,95390
2015-10-12T01:54:59.629Z,95401
2015-10-12T01:55:18.053Z,95390
2015-10-12T01:55:36.506Z,95396
2015-10-12T01:55:54.897Z,95399
2015-10-12T01:56:12.991Z,95402
2015-10-12T01:56:31.228Z,95396
2015-10-12T01:56:49.509Z,95391
2015-10-12T01:57:08.040Z,95397
2015-10-12T01:57:26.684Z,95389
2015-10-12T01:57:45.122Z,95405
2015-10-12T01:58:03.622Z,95386
2015-10-12T01:58:22.328Z,95393
2015-10-12T01:58:41.015Z,95390
2015-10-12T01:58:59.765Z,95398
2015-10-12T01:59:18.392Z,95393
2015-10-12T01:59:36.830Z,95390
2015-10-12T01:59:55.345Z,95393
2015-10-12T02:00:13.658Z,95401
2015-10-12T02:00:32.098Z,95388
2015-10-12T02:00:50.520Z,95399
2015-10-12T02:01:09.083Z,95399
2015-10-12T02:01:27.617Z,95399
2015-10-12T02:01:46.117Z,95400
2015-10-12T02:02:04.679Z,95397
2015-10-12T02:02:23.229Z,95402
2015-10-12T02:02:41.948Z,95397
2015-10-12T02:03:00.339Z,95387
2015-10-12T02:03:18.698Z,95393
2015-10-12T02:03:37.092Z,95388
2015-10-12T02:03:55.623Z,95402
2015-10-12T02:04:14.139Z,95404
2015-10-12T02:04:33.000Z,95393
2015-10-12T02:04:51.359Z,95394
2015-10-12T02:05:09.844Z,95399
2015-10-12T02:05:28.237Z,95391
2015-10-12T02:05:46.800Z,95399
2015-10-12T02:06:05.175Z,95398
2015-10-12T02:06:23.519Z,95396
2015-10-12T02:06:42.053Z,95396
2015-10-12T02:07:00.412Z,95387
2015-10-12T02:07:18.881Z,95396
2015-10-12T02:07:37.414Z,95391
2015-10-12T02:07:55.930Z,95391
2015-10-12T02:08:14.555Z,95386
2015-10-12T02:08:32.964Z,95383
2015-10-12T02:08:51.542Z,95391
2015-10-12T02:09:10.245Z,95397
2015-10-12T02:09:28.792Z,95394
2015-10-12T02:09:47.186Z,95391
2015-10-12T02:10:05.733Z,95383
2015-10-12T02:10:24.311Z,95389
2015-10-12T02:10:42.814Z,95391
2015-10-12T02:11:01.408Z,95393
2015-10-12T02:11:19.783Z,95398
2015-10-12T02:11:38.378Z,95395
2015-10-12T02:11:56.816Z,95395
2015-10-12T02:12:15.160Z,95390
2015-10-12T02:12:33.597Z,95390
2015-10-12T02:12:52.164Z,95396
2015-10-12T02:13:10.632Z,95382
2015-10-12T02:13:29.117Z,95393
2015-10-12T02:13:47.494Z,95390
2015-10-12T02:14:05.837Z,95387
2015-10-12T02:14:24.244Z,95393
2015-10-12T02:14:42.590Z,95395
2015-10-12T02:15:00.934Z,95387
2015-10-12T02:15:19.434Z,95390
2015-10-12T02:15:37.778Z,95389
2015-10-12T02:15:56.124Z,95385
2015-10-12T02:16:14.483Z,95389
2015-10-12T02:16:33.077Z,95389
2015-10-12T02:16:51.455Z,95396
2015-10-12T02:17:09.908Z,95396
2015-10-12T02:17:28.486Z,95386
2015-10-12T02:17:46.989Z,95389
2015-10-12T02:18:05.317Z,95391
2015-10-12T02:18:23.677Z,95396
2015-10-12T02:18:42.192Z,95396
2015-10-12T02:19:00.539Z,95391
2015-10-12T02:19:19.101Z,95386
2015-10-12T02:19:37.492Z,95389
2015-10-12T02:19:55.869Z,95400
2015-10-12T02:20:14.260Z,95392
2015-10-12T02:20:32.697Z,95395
2015-10-12T02:20:51.059Z,95389
2015-10-12T02:21:09.418Z,95392
2015-10-12T02:21:27.934Z,95389
2015-10-12T02:21:46.484Z,95389
2015-10-12T02:22:04.906Z,95395
2015-10-12T02:22:23.250Z,95387
2015-10-12T02:22:41.688Z,95389
2015-10-12T02:23:00.111Z,95392
2015-10-12T02:23:18.533Z,95387
2015-10-12T02:23:37.033Z,95392
2015-10-12T02:23:55.583Z,95389
2015-10-12T02:24:14.083Z,95394
2015-10-12T02:24:32.536Z,95386
2015-10-12T02:24:50.929Z,95391
2015-10-12T02:25:09.320Z,95395
2015-10-12T02:25:27.726Z,95395
2015-10-12T02:25:46.070Z,95395
2015-10-12T02:26:04.432Z,95389
2015-10-12T02:26:22.791Z,95389
2015-10-12T02:26:41.166Z,95389
2015-10-12T02:26:59.404Z,95403
2015-10-12T02:27:17.779Z,95392
2015-10-12T02:27:36.247Z,95386
2015-10-12T02:27:54.890Z,95387
2015-10-12T02:28:13.343Z,95392
2015-10-12T02:28:31.687Z,95392
2015-10-12T02:28:50.191Z,95394
2015-10-12T02:29:08.644Z,95396
2015-10-12T02:29:27.019Z,95399
2015-10-12T02:29:45.628Z,95395
2015-10-12T02:30:04.115Z,95392
2015-10-12T02:30:22.552Z,95387
2015-10-12T02:30:42.646Z,95392
2015-10-12T02:31:01.118Z,95389
2015-10-12T02:31:19.790Z,95387
2015-10-12T02:31:38.149Z,95381
2015-10-12T02:31:56.511Z,95381
2015-10-12T02:32:14.855Z,95396
2015-10-12T02:32:33.480Z,95393
2015-10-12T02:32:51.996Z,95390
2015-10-12T02:33:10.374Z,95387
2015-10-12T02:33:28.843Z,95390
2015-10-12T02:33:47.296Z,95390
2015-10-12T02:34:05.689Z,95387
2015-10-12T02:34:24.049Z,95398
2015-10-12T02:34:42.517Z,95390
2015-10-12T02:35:00.926Z,95398
2015-10-12T02:35:19.316Z,95388
2015-10-12T02:35:37.754Z,95390
2015-10-12T02:35:56.144Z,95393
2015-10-12T02:36:14.491Z,95391
2015-10-12T02:36:33.319Z,95388
2015-10-12T02:36:51.882Z,95393
2015-10-12T02:37:10.540Z,95391
2015-10-12T02:37:29.118Z,95394
2015-10-12T02:37:47.618Z,95389
2015-10-12T02:38:05.966Z,95389
2015-10-12T02:38:24.341Z,95391
2015-10-12T02:38:42.732Z,95385
2015-10-12T02:39:01.075Z,95394
2015-10-12T02:39:19.499Z,95389
2015-10-12T02:39:37.874Z,95394
2015-10-12T02:39:56.218Z,95391
2015-10-12T02:40:14.565Z,95388
2015-10-12T02:40:33.143Z,95394
2015-10-12T02:40:51.565Z,95394
2015-10-12T02:41:09.990Z,95391
2015-10-12T02:41:28.380Z,95396
2015-10-12T02:41:47.021Z,95393
2015-10-12T02:42:05.786Z,95395
2015-10-12T02:42:24.304Z,95400
2015-10-12T02:42:42.726Z,95384
2015-10-12T02:43:01.054Z,95395
2015-10-12T02:43:19.432Z,95397
2015-10-12T02:43:37.823Z,95394
2015-10-12T02:43:56.260Z,95400
2015-10-12T02:44:14.669Z,95392
2015-10-12T02:44:33.013Z,95389
2015-10-12T02:44:51.498Z,95392
2015-10-12T02:45:09.938Z,95400
2015-10-12T02:45:28.438Z,95392
2015-10-12T02:45:47.047Z,95392
2015-10-12T02:46:05.438Z,95397
2015-10-12T02:46:23.878Z,95398
2015-10-12T02:46:42.409Z,95392
2015-10-12T02:47:00.815Z,95392
2015-10-12T02:47:19.365Z,95398
2015-10-12T02:47:37.756Z,95384
2015-10-12T02:47:56.131Z,95401
2015-10-12T02:48:14.477Z,95395
2015-10-12T02:48:32.821Z,95396
2015-10-12T02:48:51.165Z,95393
2015-10-12T02:49:09.727Z,95393
2015-10-12T02:49:28.167Z,95404
2015-10-12T02:49:46.651Z,95390
2015-10-12T02:50:05.042Z,95401
2015-10-12T02:50:23.483Z,95396
2015-10-12T02:50:41.874Z,95396
2015-10-12T02:51:00.343Z,95396
2015-10-12T02:51:18.860Z,95393
2015-10-12T02:51:37.220Z,95396
2015-10-12T02:51:55.595Z,95388
2015-10-12T02:52:13.938Z,95396
2015-10-12T02:52:32.316Z,95396
2015-10-12T02:52:50.926Z,95398
2015-10-12T02:53:09.270Z,95390
2015-10-12T02:53:27.601Z,95395
2015-10-12T02:53:45.944Z,95387
2015-10-12T02:54:04.366Z,95397
2015-10-12T02:54:22.744Z,95394
2015-10-12T02:54:41.432Z,95389
2015-10-12T02:54:59.807Z,95392
2015-10-12T02:55:18.307Z,95403
2015-10-12T02:55:36.699Z,95390
2015-10-12T02:55:55.090Z,95406
2015-10-12T02:56:13.434Z,95398
2015-10-12T02:56:31.984Z,95393
2015-10-12T02:56:50.343Z,95395
2015-10-12T02:57:08.890Z,95400
2015-10-12T02:57:27.252Z,95392
2015-10-12T02:57:45.705Z,95395
2015-10-12T02:58:04.252Z,95400
2015-10-12T02:58:22.596Z,95400
2015-10-12T02:58:41.317Z,95397
2015-10-12T02:58:59.692Z,95395
2015-10-12T02:59:18.207Z,95396
2015-10-12T02:59:36.773Z,95401
2015-10-12T02:59:55.445Z,95406
2015-10-12T03:00:13.882Z,95396
2015-10-12T03:00:32.245Z,95401
2015-10-12T03:00:50.870Z,95393
2015-10-12T03:01:09.213Z,95393
2015-10-12T03:01:27.588Z,95391
2015-10-12T03:01:46.028Z,95399
2015-10-12T03:02:04.544Z,95394
2015-10-12T03:02:23.075Z,95401
2015-10-12T03:02:41.687Z,95396
2015-10-12T03:03:00.140Z,95402
2015-10-12T03:03:18.593Z,95399
2015-10-12T03:03:37.018Z,95399
2015-10-12T03:03:55.471Z,95397
2015-10-12T03:04:13.878Z,95400
2015-10-12T03:04:32.425Z,95394
2015-10-12T03:04:51.271Z,95399
2015-10-12T03:05:09.662Z,95405
2015-10-12T03:05:28.146Z,95400
2015-10-12T03:05:46.727Z,95399
2015-10-12T03:06:05.134Z,95394
2015-10-12T03:06:23.743Z,95405
2015-10-12T03:06:42.261Z,95397
2015-10-12T03:07:00.620Z,95405
2015-10-12T03:07:19.042Z,95414
2015-10-12T03:07:37.776Z,95403
2015-10-12T03:07:56.312Z,95400
2015-10-12T03:08:14.874Z,95405
2015-10-12T03:08:33.202Z,95411
2015-10-12T03:08:51.664Z,95403
2015-10-12T03:09:10.023Z,95403
2015-10-12T03:09:28.367Z,95403
2015-10-12T03:09:46.856Z,95409
2015-10-12T03:10:05.434Z,95406
2015-10-12T03:10:24.012Z,95403
2015-10-12T03:10:42.512Z,95414
2015-10-12T03:11:00.861Z,95398
2015-10-12T03:11:19.251Z,95406
2015-10-12T03:11:37.767Z,95405
2015-10-12T03:11:56.147Z,95400
2015-10-12T03:12:14.537Z,95411
2015-10-12T03:12:33.084Z,95409
2015-10-12T03:12:51.604Z,95407
2015-10-12T03:13:09.964Z,95404
2015-10-12T03:13:28.448Z,95412
2015-10-12T03:13:47.132Z,95407
2015-10-12T03:14:05.366Z,95407
2015-10-12T03:14:23.913Z,95410
2015-10-12T03:14:42.522Z,95404
2015-10-12T03:15:01.145Z,95410
2015-10-12T03:15:19.520Z,95402
2015-10-12T03:15:37.989Z,95404
2015-10-12T03:15:56.378Z,95413
2015-10-12T03:16:14.987Z,95405
2015-10-12T03:16:33.659Z,95405
2015-10-12T03:16:52.001Z,95405
2015-10-12T03:17:10.391Z,95410
2015-10-12T03:17:28.829Z,95409
2015-10-12T03:17:47.204Z,95412
2015-10-12T03:18:05.624Z,95399
2015-10-12T03:18:23.999Z,95404
2015-10-12T03:18:42.389Z,95407
2015-10-12T03:19:00.827Z,95409
2015-10-12T03:19:19.202Z,95409
2015-10-12T03:19:37.639Z,95396
2015-10-12T03:19:56.125Z,95407
2015-10-12T03:20:14.531Z,95403
2015-10-12T03:20:33.281Z,95409
2015-10-12T03:20:51.843Z,95415
2015-10-12T03:21:10.296Z,95415
2015-10-12T03:21:28.968Z,95412
2015-10-12T03:21:47.359Z,95402
2015-10-12T03:22:05.861Z,95405
2015-10-12T03:22:24.392Z,95405
2015-10-12T03:22:42.783Z,95408
2015-10-12T03:23:01.127Z,95411
2015-10-12T03:23:20.048Z,95408
2015-10-12T03:23:38.627Z,95416
2015-10-12T03:23:57.064Z,95405
2015-10-12T03:24:15.317Z,95413
2015-10-12T03:24:33.911Z,95416
2015-10-12T03:24:52.520Z,95415
2015-10-12T03:25:11.068Z,95416
2015-10-12T03:25:29.662Z,95408
2015-10-12T03:25:48.006Z,95416
2015-10-12T03:26:06.554Z,95403
2015-10-12T03:26:25.101Z,95400
2015-10-12T03:26:43.445Z,95411
2015-10-12T03:27:01.992Z,95414
2015-10-12T03:27:20.431Z,95405
2015-10-12T03:27:38.775Z,95410
2015-10-12T03:27:57.166Z,95407
2015-10-12T03:28:15.808Z,95410
2015-10-12T03:28:34.324Z,95413
2015-10-12T03:28:52.840Z,95410
2015-10-12T03:29:11.468Z,95410
2015-10-12T03:29:29.890Z,95416
2015-10-12T03:29:48.655Z,95413
2015-10-12T03:30:07.251Z,95418
2015-10-12T03:30:25.798Z,95421
2015-10-12T03:30:44.251Z,95412
2015-10-12T03:31:02.595Z,95423
2015-10-12T03:31:21.052Z,95413
2015-10-12T03:31:39.396Z,95416
2015-10-12T03:31:57.755Z,95408
2015-10-12T03:32:16.226Z,95410
2015-10-12T03:32:34.601Z,95415
2015-10-12T03:32:53.101Z,95419
2015-10-12T03:33:11.682Z,95416
2015-10-12T03:33:30.369Z,95427
2015-10-12T03:33:49.197Z,95427
2015-10-12T03:34:07.619Z,95411
2015-10-12T03:34:26.075Z,95416
2015-10-12T03:34:44.857Z,95422
2015-10-12T03:35:03.482Z,95419
2015-10-12T03:35:22.124Z,95422
2015-10-12T03:35:40.718Z,95419
2015-10-12T03:35:59.171Z,95427
2015-10-12T03:36:17.738Z,95426
2015-10-12T03:36:36.472Z,95428
2015-10-12T03:36:54.925Z,95418
2015-10-12T03:37:13.269Z,95426
2015-10-12T03:37:31.927Z,95418
2015-10-12T03:37:50.771Z,95427
2015-10-12T03:38:09.130Z,95427
2015-10-12T03:38:27.726Z,95426
2015-10-12T03:38:46.273Z,95427
2015-10-12T03:39:04.914Z,95427
2015-10-12T03:39:23.355Z,95422
2015-10-12T03:39:41.793Z,95422
2015-10-12T03:40:00.277Z,95424
2015-10-12T03:40:18.871Z,95434
2015-10-12T03:40:37.248Z,95432
2015-10-12T03:40:55.654Z,95429
2015-10-12T03:41:14.107Z,95442
2015-10-12T03:41:32.516Z,95436
2015-10-12T03:41:50.876Z,95421
2015-10-12T03:42:09.219Z,95424
2015-10-12T03:42:27.566Z,95427
2015-10-12T03:42:46.160Z,95430
2015-10-12T03:43:04.504Z,95430
2015-10-12T03:43:22.832Z,95424
2015-10-12T03:43:41.224Z,95433
2015-10-12T03:43:59.756Z,95431
2015-10-12T03:44:18.459Z,95434
2015-10-12T03:44:37.056Z,95433
2015-10-12T03:44:55.415Z,95430
2015-10-12T03:45:13.852Z,95435
2015-10-12T03:45:32.277Z,95430
2015-10-12T03:45:50.887Z,95437
2015-10-12T03:46:09.387Z,95430
2015-10-12T03:46:27.746Z,95437
2015-10-12T03:46:46.343Z,95427
2015-10-12T03:47:04.749Z,95437
2015-10-12T03:47:23.374Z,95434
2015-10-12T03:47:41.815Z,95422
2015-10-12T03:48:00.393Z,95437
2015-10-12T03:48:18.690Z,95437
2015-10-12T03:48:37.035Z,95436
2015-10-12T03:48:55.504Z,95439
2015-10-12T03:49:13.926Z,95436
2015-10-12T03:49:32.429Z,95434
2015-10-12T03:49:51.023Z,95426
2015-10-12T03:50:09.445Z,95433
2015-10-12T03:50:27.866Z,95430
2015-10-12T03:50:46.682Z,95443
2015-10-12T03:51:05.119Z,95435
2015-10-12T03:51:23.557Z,95440
2015-10-12T03:51:41.997Z,95434
2015-10-12T03:52:00.466Z,95443
2015-10-12T03:52:18.810Z,95430
2015-10-12T03:52:37.234Z,95442
2015-10-12T03:52:55.624Z,95437
2015-10-12T03:53:14.203Z,95434
2015-10-12T03:53:32.999Z,95443
2015-10-12T03:53:51.518Z,95437
2015-10-12T03:54:10.159Z,95430
2015-10-12T03:54:28.659Z,95435
2015-10-12T03:54:47.099Z,95437
2015-10-12T03:55:05.599Z,95433
2015-10-12T03:55:24.146Z,95433
2015-10-12T03:55:42.586Z,95430
2015-10-12T03:56:00.961Z,95437
2015-10-12T03:56:19.414Z,95437
2015-10-12T03:56:37.804Z,95443
2015-10-12T03:56:56.182Z,95433
2015-10-12T03:57:14.964Z,95435
2015-10-12T03:57:33.385Z,95428
2015-10-12T03:57:51.967Z,95433